KMRF

Marfa Municipal Airport

Marfa, Texas, USA
METAR KMRF 201956Z AUTO 06013G19KT 10SM 28/17 A3024 RMK AO2 LTG DSNT SE SLP182 T02830167 $
Observed Flight Rules
Aug-20 @ 19:56 UTC (33 minutes ago)
Wind Visibility
60° at 13 knots
 Gusting to 19 knots
10 miles
Temperatures Readings
Current 28°C / 82°F
Dewpoint 17°C / 63°F
Humidity 51%
Altimeter 30.24" Hg
Pressure 1018.2 hPa
Elevation 1481
METAR KMRF 201956Z AUTO 06013G19KT 10SM 28/17 A3024 RMK AO2 LTG DSNT SE SLP182 T02830167 $
Observed Flight Rules
Aug-20 @ 19:56 UTC
(33 minutes ago)
Wind Visibility
60° at 13 knots
 Gusting to 19 knots
10 miles
Temperature Dewpoint
28°C / 82°F 17°C / 63°F
Humidity Altimeter Pressure
51% 30.24" Hg 1018.2 hPa